Online since October of 2007


Active alerts


No alerts

lower harbor more information Lower Harbor


mount mesnard more information Mount Mesnard


visit our other weather sites:

Template documentation
and downloads

And another site


CBI


nearby metar reports

   
KSAW - Sawyer, Michigan
updated: Jul 22 2018 9:47 pm
clear  
clear  
   wind: north 5.8 mph
wind: north 5.8 mph
temperature: 59°F
dew point: 53.6°F
humidity: 82%
barometer: 30.04 inHg
clouds: clear
visibility: 10 mi
cloud details: clear
KSAW 230147Z 36005KT 10SM SKC 15/12 A3004
KESC - Escanaba, Michigan
updated: Jul 22 2018 8:56 pm
clear  
clear  
   wind: nnw 6.9 mph
wind: nnw 6.9 mph
temperature: 68°F
dew point: 57.2°F
humidity: 69%
barometer: 29.99 inHg
clouds: clear
visibility: 10 mi
cloud details: clear
KESC 230056Z AUTO 34006KT 10SM CLR 20/14 A2999 RMK AO2 SLP173 T02000139
KIMT - Iron Mountain, MI
updated: Jul 22 2018 8:54 pm
clear  
clear  
   wind: nne 5.8 mph
wind: nne 5.8 mph
temperature: 73.4°F
dew point: 60.8°F
humidity: 65%
barometer: 30.02 inHg
clouds: clear
visibility: 10 mi
cloud details: clear
KIMT 230054Z AUTO 02005KT 10SM CLR 23/16 A3002 RMK AO2 SLP162 T02280161
KGRB - Green Bay, WI
updated: Jul 22 2018 8:53 pm
clear  
clear  
   wind: calm
wind: calm
temperature: 73.4°F
dew point: 66.2°F
humidity: 78%
barometer: 29.98 inHg
clouds: clear
visibility: 10 mi
cloud details: clear
KGRB 230053Z 00000KT 10SM CLR 23/19 A2998 RMK AO2 SLP149 T02330194
KDET - Detroit, MI
updated: Jul 22 2018 9:53 pm
overcast  
overcast  
   wind: calm
wind: calm
temperature: 64.4°F
dew point: 55.4°F
humidity: 73%
barometer: 29.87 inHg
clouds: overcast
visibility: 10 mi
cloud details: few clouds 823 m,
overcast 1128 m
KDET 230153Z 00000KT 10SM FEW027 OVC037 18/13 A2987 RMK AO2 SLP114 T01830128
 

script developed by  Saratoga-weather.org adapted for the template by  Weerstation Leuven

you find our weather info also at:

Weather Underground

midwestern weather network

WeatherlinkIP

Citizen Weather Observer Program (CWOP)

equipment we use:

weather-station
Davis VP2

weather-program
Davis Weatherlink.Com

Davis VP2

Davis Weatherlink.Com